Diamond, Ohio
Current Conditions -  °F | °C
As of 3:40 AM on Sunday 23 Nov 2014 (Local Time) from KPOV Reporting Station
Overcast Overcast  
Wind Chill: 44°   Ceiling: 3900
Heat Index: 48°   Visibility: 10mi
Dew Point: 30°   Wind: 8mph
Humidity: 51%   Direction: 230°SW
Pressure: 30.05"   Gusts: 16mph
Location:  41.1°N, 81.02°W
Report Text: KPOV 230840Z AUTO 23007G14KT 190V250 10SM OVC039 09/M01 A3005 RMK AO2 T00871009
Loading
Personal Weather Stations






























Interactive Weather Map New forecast layout! Learn more

10-Day Weather Forecast

Advertisements
Track Severe Weather on mobile